LFMTEBCI

Guest
Details From LFMT - Montpellier/mediterranee
To EBCI - Brussels South - Charleroi
Flight Number -
Tags Generated
Created
Modified
Stats Distance 414 nm / 766 km
Max Altitude 0 ft / 0 m
Waypoints 3
Social Downloads 0
Likes 0
Share VATSIM

Download

Looking for another format? Having issues loading an existing format? Contact us
Advertisement - Login to hide

Notes

Generated

Route

LFMT BFS86 EBCI

ID Type Via Altitude Latitude Longitude Leg Dist Tot Dist Heading (true) Name
O LFMT APT - 0 ft / 0 m 43.57586˚ 3.95193˚ - 0 nm - -
BFS86 FIX - 0 ft / 0 m 50.21792˚ 4.39592˚ 399 nm 399 nm 2° / 3° -
O EBCI APT - 0 ft / 0 m 50.45539˚ 4.43664˚ 14 nm 413 nm 6° / 6° -

Altitude Profile

Advertisement - Login to hide

Weather


0- 5 10 15 20 25 30 35+ Temperature / ° C

Clouds and Precipitation
Forecast for 2018-05-27 18:00 UTC. Updated 4 hours ago

Ground ~20,000 ft ~40,000 ft Winds

LFMT

Details ICAO LFMT (MPL)
Name Montpellier/Mediterranee
Region France
Timezone Europe/Paris (UTC+2.0)
Stats Elevation 16 ft / 5 m (AMSL)
Location 43.576262° 3.963261°
Runways 2
Magnetic Variation 1.299° E

METAR

LFMT 272130Z AUTO 32005KT 9999 ///CB 21/15 Q1015 BECMG 02010KT

Decode

TAF

TAF LFMT 272000Z 2721/2821 02010KT 9999 FEW080TCU BECMG 2807/2809 12012KT SCT013 FEW040CB BKN100 PROB40 TEMPO 2811/2818 4000 TSRA SCT040CB

Decode

Departure Runways

ID Width Length Bearing (true) Bearing (mag) Surface Threshold Offset Overrun Length
13L 164 ft / 50 m 8,525 ft / 2,598 m 124.78° 123.48° Asphalt 0 ft / 0 m 0 ft / 0 m
13R 98 ft / 30 m 3,611 ft / 1,101 m 124.80° 123.50° Asphalt 328 ft / 100 m 0 ft / 0 m
31L 98 ft / 30 m 3,611 ft / 1,101 m 304.81° 303.51° Asphalt 0 ft / 0 m 0 ft / 0 m
31R 164 ft / 50 m 8,525 ft / 2,598 m 304.80° 303.50° Asphalt 0 ft / 0 m 0 ft / 0 m

EBCI

Details ICAO EBCI (CRL)
Name Brussels South - Charleroi
Region Belgium
Timezone Europe/Brussels (UTC+2.0)
Stats Elevation 614 ft / 187 m (AMSL)
Location 50.459947° 4.453125°
Runways 1
Magnetic Variation 1.195° E

METAR

EBCI 272120Z 14005KT 110V190 9999 VCTS -SHRA FEW030CB 21/16 Q1017 TEMPO 3000 SHRA

Decode

TAF

TAF EBCI 271701Z 2718/2824 10006KT 9999 FEW045TCU PROB30 TEMPO 2712/2802 VRB20G35KT 2500 +SHRA TSRAGR TEMPO 2802/2807 3000 BR PROB30 TEMPO 2803/2806 1500 MIFG PROB30 TEMPO 2813/2824 VRB20G35KT 2500 +SHRA TSRAGR

Decode

Destination Runways

ID Width Length Bearing (true) Bearing (mag) Surface Threshold Offset Overrun Length
07 148 ft / 45 m 8,374 ft / 2,552 m 65.53° 64.34° Asphalt 1,476 ft / 450 m 0 ft / 0 m
25 148 ft / 45 m 8,374 ft / 2,552 m 245.55° 244.36° Asphalt 0 ft / 0 m 0 ft / 0 m

Approach Navaids

Runway Type Ident Frequency Range Bearing (true) Bearing (mag) Slope Elevation
25 Localiser IGC 110.90 MHz 18 nm / 33 km 245.54° 244.35° - 614 ft / 187 m (AMSL)
25 Glidescope IGC 110.90 MHz 10 nm / 19 km 245.54° 244.35° 3.00° 614 ft / 187 m (AMSL)

Popular Alternatives